Time;durP1;ratioP1;P1;durP2;ratioP2;P2;SDS_P1;SDS_P2;PMS_P1;PMS_P2;Temp;Humidity;BMP_temperature;BMP_pressure;BME280_temperature;BME280_humidity;BME280_pressure;Samples;Min_cycle;Max_cycle;Signal;HPM_P1;HPM_P2
2023/08/01 00:01:21;;;;;;;6.00;2.50;;;;;;;-145.18;100.00;46646.72;5040408;28;20040;-71
2023/08/01 00:03:46;;;;;;;6.10;2.27;;;;;;;-145.18;100.00;46650.63;5032984;28;20061;-71
2023/08/01 00:06:11;;;;;;;7.80;2.93;;;;;;;-145.18;100.00;46644.78;5032980;28;20490;-72
2023/08/01 00:08:37;;;;;;;9.30;2.83;;;;;;;-145.18;100.00;46646.72;5014950;28;20033;-71
2023/08/01 00:11:02;;;;;;;7.03;3.07;;;;;;;-145.18;100.00;46648.69;5033347;28;20044;-72
2023/08/01 00:13:27;;;;;;;7.90;2.60;;;;;;;-145.18;100.00;46650.63;5036683;28;20041;-71
2023/08/01 00:15:53;;;;;;;8.53;4.20;;;;;;;-145.18;100.00;46642.81;5040512;28;20034;-71
2023/08/01 00:18:18;;;;;;;5.83;2.33;;;;;;;-145.18;100.00;46644.78;5031303;28;20377;-72
2023/08/01 00:20:44;;;;;;;7.97;1.93;;;;;;;-145.18;100.00;46648.69;5033116;28;20087;-71
2023/08/01 00:23:09;;;;;;;6.27;2.10;;;;;;;-145.18;100.00;46642.81;5045905;28;20419;-71
2023/08/01 00:25:34;;;;;;;8.90;2.50;;;;;;;-145.18;100.00;46644.78;5032894;28;20056;-71
2023/08/01 00:28:00;;;;;;;7.07;2.53;;;;;;;-145.18;100.00;46648.69;5014776;28;20037;-71
2023/08/01 00:30:25;;;;;;;13.70;2.27;;;;;;;-145.18;100.00;46646.72;5032891;28;20033;-71
2023/08/01 00:32:50;;;;;;;7.17;2.20;;;;;;;-145.18;100.00;46648.69;5032588;28;20037;-71
2023/08/01 00:35:16;;;;;;;11.27;2.10;;;;;;;-145.18;100.00;46646.72;5032959;28;20108;-71
2023/08/01 00:37:42;;;;;;;6.13;2.20;;;;;;;-145.18;100.00;46646.72;5032781;28;20025;-71
2023/08/01 00:40:08;;;;;;;10.80;2.30;;;;;;;-145.18;100.00;46646.72;5032844;28;20033;-72
2023/08/01 00:42:36;;;;;;;6.80;2.20;;;;;;;-145.18;100.00;46648.69;5031920;28;20047;-71
2023/08/01 00:45:02;;;;;;;6.90;2.43;;;;;;;-145.18;100.00;46648.69;5032591;28;20482;-71
2023/08/01 00:47:27;;;;;;;13.70;3.10;;;;;;;-145.18;100.00;46648.69;5032679;28;20060;-71
2023/08/01 00:49:53;;;;;;;9.40;2.33;;;;;;;-145.18;100.00;46648.69;5032684;28;20029;-72
2023/08/01 00:52:18;;;;;;;12.20;2.70;;;;;;;-145.18;100.00;46646.72;5032678;28;20495;-72
2023/08/01 00:54:43;;;;;;;4.77;2.07;;;;;;;-145.18;100.00;46646.72;5032159;28;20033;-71
2023/08/01 00:57:09;;;;;;;9.97;2.43;;;;;;;-145.18;100.00;46640.88;5032140;28;20033;-72
2023/08/01 00:59:35;;;;;;;7.53;2.77;;;;;;;-145.18;100.00;46644.78;5032604;28;20377;-71
2023/08/01 01:02:01;;;;;;;8.73;2.00;;;;;;;-145.18;100.00;46646.72;5031885;28;20036;-72
2023/08/01 01:04:27;;;;;;;12.73;2.67;;;;;;;-145.18;100.00;46642.81;5030460;28;20469;-71
2023/08/01 01:06:59;;;;;;;8.23;2.50;;;;;;;-145.18;100.00;46644.78;5026554;28;20036;-71
2023/08/01 01:09:29;;;;;;;7.00;2.10;;;;;;;-145.18;100.00;46644.78;5043727;28;20032;-71
2023/08/01 01:11:54;;;;;;;9.33;2.53;;;;;;;-145.18;100.00;46644.78;5032385;28;20036;-71
2023/08/01 01:14:20;;;;;;;8.87;2.30;;;;;;;-145.18;100.00;46642.81;5031099;28;20096;-71
2023/08/01 01:16:45;;;;;;;8.30;2.60;;;;;;;-145.18;100.00;46644.78;5031916;28;20388;-71
2023/08/01 01:19:10;;;;;;;9.37;3.10;;;;;;;-145.18;100.00;46638.91;5031846;28;20120;-71
2023/08/01 01:21:39;;;;;;;10.73;3.03;;;;;;;-145.18;100.00;46640.88;5023314;28;20029;-71
2023/08/01 01:24:06;;;;;;;10.90;2.67;;;;;;;-145.18;100.00;46646.72;5024584;28;20013;-71
2023/08/01 01:26:33;;;;;;;7.50;2.57;;;;;;;-145.18;100.00;46644.78;5032077;28;20588;-71
2023/08/01 01:29:00;;;;;;;9.93;2.63;;;;;;;-145.18;100.00;46640.88;5031722;28;20033;-71
2023/08/01 01:31:26;;;;;;;6.43;2.53;;;;;;;-145.18;100.00;46646.72;5031636;28;20485;-72
2023/08/01 01:33:51;;;;;;;7.60;2.73;;;;;;;-145.18;100.00;46648.69;5031180;28;20035;-71
2023/08/01 01:36:17;;;;;;;10.33;2.93;;;;;;;-145.18;100.00;46642.81;5013961;28;20029;-71
2023/08/01 01:38:42;;;;;;;9.30;2.87;;;;;;;-145.18;100.00;46646.72;5031641;28;20040;-71
2023/08/01 01:41:07;;;;;;;11.40;3.00;;;;;;;-145.18;100.00;46642.81;5031979;28;20520;-71
2023/08/01 01:43:33;;;;;;;9.57;2.53;;;;;;;-145.18;100.00;46644.78;5030714;28;20041;-71
2023/08/01 01:45:58;;;;;;;10.23;2.60;;;;;;;-145.18;100.00;46648.69;5031592;28;20024;-71
2023/08/01 01:48:24;;;;;;;7.87;2.90;;;;;;;-145.18;100.00;46638.91;5013595;28;20025;-71
2023/08/01 01:50:49;;;;;;;11.03;2.37;;;;;;;-145.18;100.00;46642.81;5031378;28;20028;-71
2023/08/01 01:53:14;;;;;;;6.43;2.50;;;;;;;-145.18;100.00;46648.69;5031526;28;20038;-72
2023/08/01 01:55:40;;;;;;;8.93;2.50;;;;;;;-145.18;100.00;46646.72;5035095;28;20507;-71
2023/08/01 01:58:06;;;;;;;5.97;2.50;;;;;;;-145.18;100.00;46646.72;5041439;28;20032;-71
2023/08/01 02:00:31;;;;;;;7.13;2.97;;;;;;;-145.18;100.00;46640.88;5031532;28;20026;-72
2023/08/01 02:02:56;;;;;;;6.33;2.43;;;;;;;-145.18;100.00;46640.88;5031707;28;20053;-71
2023/08/01 02:05:22;;;;;;;10.50;2.70;;;;;;;-145.18;100.00;46644.78;5030866;28;20493;-71
2023/08/01 02:07:47;;;;;;;11.77;3.37;;;;;;;-145.18;100.00;46644.78;5031360;28;20083;-71
2023/08/01 02:10:13;;;;;;;14.77;3.23;;;;;;;-145.18;100.00;46646.72;5013548;28;20033;-71
2023/08/01 02:12:38;;;;;;;17.83;3.30;;;;;;;-145.18;100.00;46648.69;5013192;28;20108;-71
2023/08/01 02:15:04;;;;;;;13.60;2.90;;;;;;;-145.18;100.00;46644.78;5013810;28;20029;-67
2023/08/01 02:17:29;;;;;;;5.53;2.50;;;;;;;-145.18;100.00;46648.69;5031294;28;20503;-67
2023/08/01 02:19:55;;;;;;;8.47;2.80;;;;;;;-145.18;100.00;46646.72;5013352;28;20120;-67
2023/08/01 02:22:20;;;;;;;9.17;2.50;;;;;;;-145.18;100.00;46646.72;5031096;28;20048;-67
2023/08/01 02:24:45;;;;;;;8.23;2.70;;;;;;;-145.18;100.00;46644.78;5031211;28;20025;-69
2023/08/01 02:27:11;;;;;;;6.97;2.73;;;;;;;-145.18;100.00;46642.81;5035273;28;20400;-67
2023/08/01 02:29:36;;;;;;;9.67;3.20;;;;;;;-145.18;100.00;46644.78;5035206;28;20034;-67
2023/08/01 02:32:02;;;;;;;11.43;2.93;;;;;;;-145.18;100.00;46644.78;5034940;28;20416;-67
2023/08/01 02:34:27;;;;;;;11.40;2.93;;;;;;;-145.18;100.00;46644.78;5017081;28;20060;-67
2023/08/01 02:36:53;;;;;;;8.60;3.33;;;;;;;-145.18;100.00;46646.72;5034568;28;20033;-67
2023/08/01 02:39:18;;;;;;;6.97;2.33;;;;;;;-145.18;100.00;46650.63;5034387;28;20034;-67
2023/08/01 02:41:44;;;;;;;11.73;2.67;;;;;;;-145.18;100.00;46650.63;5034802;28;20030;-67
2023/08/01 02:44:09;;;;;;;9.93;2.87;;;;;;;-145.18;100.00;46646.72;5033294;28;20036;-67
2023/08/01 02:46:34;;;;;;;11.77;3.50;;;;;;;-145.18;100.00;46650.63;5028973;28;20026;-67
2023/08/01 02:49:00;;;;;;;7.53;3.10;;;;;;;-145.18;100.00;46652.59;5034832;28;20080;-67
2023/08/01 02:51:25;;;;;;;10.43;3.07;;;;;;;-145.18;100.00;46650.63;5033893;28;20456;-67
2023/08/01 02:53:50;;;;;;;9.70;2.70;;;;;;;-145.18;100.00;46652.59;5034520;28;20109;-67
2023/08/01 02:56:16;;;;;;;7.13;2.40;;;;;;;-145.18;100.00;46652.59;5029617;28;20034;-67
2023/08/01 02:58:42;;;;;;;9.37;2.90;;;;;;;-145.18;100.00;46650.63;5034259;28;20124;-68
2023/08/01 03:01:13;;;;;;;7.77;2.53;;;;;;;-145.18;100.00;46650.63;5034497;28;20052;-67
2023/08/01 03:03:38;;;;;;;12.33;2.77;;;;;;;-145.18;100.00;46650.63;5034071;28;20025;-67
2023/08/01 03:06:04;;;;;;;7.90;3.00;;;;;;;-145.18;100.00;46650.63;5034162;28;20048;-67
2023/08/01 03:08:29;;;;;;;11.27;2.97;;;;;;;-145.18;100.00;46652.59;5034058;28;20104;-67
2023/08/01 03:10:55;;;;;;;8.97;3.60;;;;;;;-145.18;100.00;46652.59;5034502;28;20429;-67
2023/08/01 03:13:21;;;;;;;8.77;3.23;;;;;;;-145.18;100.00;46652.59;5033414;28;20032;-67
2023/08/01 03:15:46;;;;;;;10.00;3.27;;;;;;;-145.18;100.00;46654.53;5016814;28;20025;-67
2023/08/01 03:18:11;;;;;;;5.03;2.57;;;;;;;-145.18;100.00;46658.44;5033667;28;20064;-67
2023/08/01 03:20:37;;;;;;;5.20;2.67;;;;;;;-145.18;100.00;46650.63;5033960;28;20025;-67
2023/08/01 03:23:02;;;;;;;11.00;3.73;;;;;;;-145.18;100.00;46650.63;5034233;28;20530;-67
2023/08/01 03:25:28;;;;;;;10.67;3.03;;;;;;;-145.18;100.00;46652.59;5034338;28;20033;-71
2023/08/01 03:27:54;;;;;;;15.50;4.27;;;;;;;-145.18;100.00;46654.53;5033487;28;20104;-72
2023/08/01 03:30:20;;;;;;;6.73;2.90;;;;;;;-145.18;100.00;46656.50;5016583;28;20080;-71
2023/08/01 03:32:46;;;;;;;6.33;3.20;;;;;;;-145.18;100.00;46652.59;5046870;28;20029;-71
2023/08/01 03:35:13;;;;;;;11.17;3.43;;;;;;;-145.18;100.00;46656.50;5033616;28;20105;-72
2023/08/01 03:37:39;;;;;;;8.63;3.40;;;;;;;-145.18;100.00;46654.53;5032758;28;20496;-71
2023/08/01 03:40:08;;;;;;;10.20;2.50;;;;;;;-145.18;100.00;46654.53;5034074;28;20100;-71
2023/08/01 03:42:34;;;;;;;11.50;3.27;;;;;;;-145.18;100.00;46652.59;5033419;28;20484;-72
2023/08/01 03:44:59;;;;;;;10.27;3.00;;;;;;;-145.18;100.00;46650.63;5033694;28;20049;-71
2023/08/01 03:47:25;;;;;;;14.27;3.60;;;;;;;-145.18;100.00;46654.53;5033670;28;20581;-71
2023/08/01 03:49:50;;;;;;;10.50;3.87;;;;;;;-145.18;100.00;46654.53;5033924;28;20057;-72
2023/08/01 03:52:15;;;;;;;7.33;3.23;;;;;;;-145.18;100.00;46650.63;5033372;28;20480;-71
2023/08/01 03:54:41;;;;;;;8.93;3.40;;;;;;;-145.18;100.00;46652.59;5033147;28;20069;-72
2023/08/01 03:57:06;;;;;;;9.17;3.40;;;;;;;-145.18;100.00;46656.50;5031762;28;20034;-71
2023/08/01 03:59:31;;;;;;;12.27;3.30;;;;;;;-145.18;100.00;46656.50;5032944;28;20452;-71
2023/08/01 04:01:57;;;;;;;6.97;3.00;;;;;;;-145.18;100.00;46654.53;5032947;28;20040;-71
2023/08/01 04:04:22;;;;;;;10.73;3.53;;;;;;;-145.18;100.00;46652.59;5033515;28;20021;-71
2023/08/01 04:06:48;;;;;;;8.67;3.73;;;;;;;-145.18;100.00;46652.59;5032424;28;20068;-71
2023/08/01 04:09:13;;;;;;;8.57;3.43;;;;;;;-145.18;100.00;46648.69;5032905;28;20034;-71
2023/08/01 04:11:39;;;;;;;15.40;3.43;;;;;;;-145.18;100.00;46650.63;5033252;28;20033;-72
2023/08/01 04:14:04;;;;;;;9.03;4.33;;;;;;;-145.18;100.00;46648.69;5032858;28;20469;-71
2023/08/01 04:16:29;;;;;;;12.50;3.50;;;;;;;-145.18;100.00;46656.50;5032598;28;20116;-71
2023/08/01 04:18:55;;;;;;;15.33;4.60;;;;;;;-145.18;100.00;46648.69;5033027;28;20071;-72
2023/08/01 04:21:20;;;;;;;16.53;4.57;;;;;;;-145.18;100.00;46654.53;5032475;28;20485;-71
2023/08/01 04:23:46;;;;;;;11.97;3.40;;;;;;;-145.18;100.00;46656.50;5032966;28;20053;-71
2023/08/01 04:26:11;;;;;;;9.70;3.80;;;;;;;-145.18;100.00;46660.41;5032356;28;20029;-71
2023/08/01 04:28:36;;;;;;;13.10;3.97;;;;;;;-145.18;100.00;46648.69;5033201;28;20164;-71
2023/08/01 04:31:02;;;;;;;10.93;4.00;;;;;;;-145.18;100.00;46652.59;5032638;28;20044;-72
2023/08/01 04:33:27;;;;;;;13.70;4.00;;;;;;;-145.18;100.00;46652.59;5032919;28;20363;-72
2023/08/01 04:35:53;;;;;;;13.03;4.03;;;;;;;-145.18;100.00;46656.50;4995150;28;20097;-67
2023/08/01 04:38:19;;;;;;;13.37;4.33;;;;;;;-145.18;100.00;46654.53;5032448;28;20397;-67
2023/08/01 04:40:44;;;;;;;11.57;4.00;;;;;;;-145.18;100.00;46652.59;5032482;28;20045;-67
2023/08/01 04:43:12;;;;;;;15.67;4.37;;;;;;;-145.18;100.00;46650.63;5031976;28;20044;-67
2023/08/01 04:45:37;;;;;;;12.20;4.60;;;;;;;-145.18;100.00;46648.69;5032566;28;20077;-67
2023/08/01 04:48:03;;;;;;;10.87;4.40;;;;;;;-145.18;100.00;46652.59;5032315;28;20053;-67
2023/08/01 04:50:29;;;;;;;11.37;4.10;;;;;;;-145.18;100.00;46652.59;5031249;28;20033;-67
2023/08/01 04:52:54;;;;;;;9.43;4.17;;;;;;;-145.18;100.00;46652.59;5032496;28;20033;-67
2023/08/01 04:55:19;;;;;;;12.27;4.30;;;;;;;-145.18;100.00;46650.63;5031897;28;20026;-67
2023/08/01 04:57:45;;;;;;;11.10;4.43;;;;;;;-145.18;100.00;46652.59;5032559;28;20041;-67
2023/08/01 05:00:11;;;;;;;16.00;4.10;;;;;;;-145.18;100.00;46648.69;5032044;28;20029;-67
2023/08/01 05:02:37;;;;;;;9.87;3.87;;;;;;;-145.18;100.00;46648.69;5031958;28;20409;-67
2023/08/01 05:05:03;;;;;;;10.97;4.10;;;;;;;-145.18;100.00;46648.69;5031739;28;20014;-68
2023/08/01 05:07:29;;;;;;;19.33;4.53;;;;;;;-145.18;100.00;46646.72;5031788;28;20505;-67
2023/08/01 05:09:54;;;;;;;13.03;3.77;;;;;;;-145.18;100.00;46648.69;5015231;28;20057;-67
2023/08/01 05:12:20;;;;;;;7.77;3.87;;;;;;;-145.18;100.00;46646.72;5039617;28;20124;-67
2023/08/01 05:14:45;;;;;;;14.87;3.43;;;;;;;-145.18;100.00;46654.53;5027387;28;20033;-67
2023/08/01 05:17:10;;;;;;;12.20;4.20;;;;;;;-145.18;100.00;46648.69;5031782;28;20021;-67
2023/08/01 05:19:36;;;;;;;14.97;3.80;;;;;;;-145.18;100.00;46650.63;5040031;28;20091;-67
2023/08/01 05:22:01;;;;;;;9.37;3.70;;;;;;;-145.18;100.00;46652.59;4997263;28;20041;-67
2023/08/01 05:24:27;;;;;;;16.27;4.63;;;;;;;-145.18;100.00;46646.72;5036243;28;20076;-67
2023/08/01 05:26:52;;;;;;;13.77;3.73;;;;;;;-145.18;100.00;46646.72;5031321;28;20045;-67
2023/08/01 05:29:20;;;;;;;12.60;4.07;;;;;;;-145.18;100.00;46650.63;5027858;28;20099;-67
2023/08/01 05:31:45;;;;;;;10.63;4.30;;;;;;;-145.18;100.00;46646.72;5035917;28;20405;-67
2023/08/01 05:34:11;;;;;;;10.90;4.03;;;;;;;-145.18;100.00;46650.63;5033469;28;20045;-67
2023/08/01 05:36:36;;;;;;;11.47;3.47;;;;;;;-145.18;100.00;46652.59;5034065;28;20068;-67
2023/08/01 05:39:02;;;;;;;9.87;3.70;;;;;;;-145.18;100.00;46650.63;5038075;28;20119;-67
2023/08/01 05:41:28;;;;;;;9.87;3.40;;;;;;;-145.18;100.00;46648.69;5031628;28;20060;-67
2023/08/01 05:43:53;;;;;;;9.53;3.83;;;;;;;-145.18;100.00;46654.53;5031760;28;20025;-72
2023/08/01 05:46:18;;;;;;;13.07;3.37;;;;;;;-145.18;100.00;46654.53;5031835;28;20029;-71
2023/08/01 05:48:44;;;;;;;15.70;3.50;;;;;;;-145.18;100.00;46650.63;5031696;28;20037;-71
2023/08/01 05:51:09;;;;;;;10.50;4.20;;;;;;;-145.18;100.00;46650.63;5014087;28;20060;-71
2023/08/01 05:53:34;;;;;;;9.40;3.23;;;;;;;-145.18;100.00;46652.59;5013592;28;20068;-71
2023/08/01 05:56:00;;;;;;;14.20;3.67;;;;;;;-145.18;100.00;46650.63;5031344;28;20033;-71
2023/08/01 05:58:25;;;;;;;17.03;3.83;;;;;;;-145.18;100.00;46654.53;5031598;28;20121;-71
2023/08/01 06:00:51;;;;;;;13.47;3.70;;;;;;;-145.18;100.00;46654.53;5033047;28;20476;-71
2023/08/01 06:03:16;;;;;;;7.53;3.13;;;;;;;-145.18;100.00;46654.53;5035438;28;20112;-72
2023/08/01 06:05:42;;;;;;;8.77;3.23;;;;;;;-145.18;100.00;46656.50;5035666;28;20033;-71
2023/08/01 06:08:10;;;;;;;10.10;2.83;;;;;;;-145.18;100.00;46652.59;5035179;28;20068;-72
2023/08/01 06:10:36;;;;;;;8.57;3.03;;;;;;;-145.18;100.00;46658.44;5035326;28;20041;-71
2023/08/01 06:13:01;;;;;;;12.40;3.30;;;;;;;-145.18;100.00;46658.44;5035316;28;20121;-70
2023/08/01 06:15:27;;;;;;;9.17;3.00;;;;;;;-145.18;100.00;46654.53;5034891;28;20133;-70
2023/08/01 06:17:52;;;;;;;10.83;3.27;;;;;;;-145.18;100.00;46654.53;5035015;28;20040;-70
2023/08/01 06:20:18;;;;;;;11.13;2.73;;;;;;;-145.18;100.00;46656.50;5035122;28;20128;-70
2023/08/01 06:22:43;;;;;;;17.97;3.60;;;;;;;-145.18;100.00;46662.34;5035027;28;20469;-70
2023/08/01 06:25:09;;;;;;;8.67;2.70;;;;;;;-145.18;100.00;46664.31;5034829;28;20029;-70
2023/08/01 06:27:34;;;;;;;13.67;3.13;;;;;;;-145.18;100.00;46664.31;5034227;28;20492;-71
2023/08/01 06:30:00;;;;;;;6.63;2.53;;;;;;;-145.18;100.00;46656.50;5034657;28;20029;-71
2023/08/01 06:32:26;;;;;;;12.07;3.40;;;;;;;-145.18;100.00;46658.44;5016930;28;20045;-71
2023/08/01 06:34:51;;;;;;;10.50;3.23;;;;;;;-145.18;100.00;46668.22;5035318;28;20386;-71
2023/08/01 06:37:17;;;;;;;6.93;2.23;;;;;;;-145.18;100.00;46670.16;5029277;28;20465;-72
2023/08/01 06:39:42;;;;;;;12.07;3.17;;;;;;;-145.18;100.00;46666.25;5034399;28;20496;-71
2023/08/01 06:42:08;;;;;;;9.43;2.80;;;;;;;-145.18;100.00;46670.16;5040864;28;20472;-71
2023/08/01 06:44:34;;;;;;;7.83;2.97;;;;;;;-145.18;100.00;46670.16;5034340;28;20083;-71
2023/08/01 06:46:59;;;;;;;8.20;2.77;;;;;;;-145.18;100.00;46672.13;5033696;28;20116;-71
2023/08/01 06:49:25;;;;;;;10.17;2.83;;;;;;;-145.18;100.00;46670.16;5034557;28;20044;-71
2023/08/01 06:51:50;;;;;;;9.40;2.60;;;;;;;-145.18;100.00;46672.13;5033961;28;20129;-71
2023/08/01 06:54:16;;;;;;;6.70;2.60;;;;;;;-145.18;100.00;46672.13;5033755;28;20044;-71
2023/08/01 06:56:47;;;;;;;9.27;2.70;;;;;;;-145.18;100.00;46672.13;5033940;28;20393;-71
2023/08/01 06:59:13;;;;;;;8.57;2.87;;;;;;;-145.18;100.00;46674.06;5034174;28;20037;-71
2023/08/01 07:01:40;;;;;;;13.47;3.07;;;;;;;-145.18;100.00;46674.06;5034379;28;20223;-71
2023/08/01 07:04:06;;;;;;;9.57;2.70;;;;;;;-145.18;100.00;46676.03;5016793;28;20766;-71
2023/08/01 07:06:31;;;;;;;9.47;3.13;;;;;;;-145.18;100.00;46674.06;5033403;28;20033;-71
2023/08/01 07:08:57;;;;;;;11.63;2.87;;;;;;;-145.18;100.00;46676.03;5033816;28;20081;-71
2023/08/01 07:11:23;;;;;;;9.50;2.53;;;;;;;-145.18;100.00;46679.94;5032645;28;20390;-71
2023/08/01 07:13:48;;;;;;;8.20;2.30;;;;;;;-145.18;100.00;46676.03;5034679;28;20072;-71
2023/08/01 07:16:14;;;;;;;7.77;2.53;;;;;;;-145.18;100.00;46681.88;5029816;28;20030;-71
2023/08/01 07:18:40;;;;;;;7.40;2.20;;;;;;;-145.18;100.00;46681.88;5016582;28;20045;-71
2023/08/01 07:21:05;;;;;;;9.57;2.60;;;;;;;-145.18;100.00;46674.06;5025838;28;20033;-71
2023/08/01 07:23:33;;;;;;;9.03;2.60;;;;;;;-145.18;100.00;46677.97;5009282;28;20566;-72
2023/08/01 07:25:59;;;;;;;6.93;2.30;;;;;;;-145.18;100.00;46676.03;5033274;28;20079;-72
2023/08/01 07:28:24;;;;;;;4.27;2.40;;;;;;;-145.18;100.00;46674.06;5033500;28;20112;-72
2023/08/01 07:30:58;;;;;;;11.37;3.57;;;;;;;-145.18;100.00;46672.13;5032207;28;20477;-72
2023/08/01 07:33:24;;;;;;;9.97;4.23;;;;;;;-145.18;100.00;46668.22;5020031;28;20061;-72
2023/08/01 07:35:49;;;;;;;12.57;3.00;;;;;;;-145.18;100.00;46666.25;5015382;28;20033;-71
2023/08/01 07:38:14;;;;;;;7.67;2.77;;;;;;;-145.18;100.00;46660.41;5017790;28;20064;-71
2023/08/01 07:40:40;;;;;;;9.93;3.33;;;;;;;-145.18;100.00;46668.22;5015383;28;20480;-71
2023/08/01 07:43:05;;;;;;;14.07;3.27;;;;;;;-145.18;100.00;46666.25;5032672;28;20025;-72
2023/08/01 07:45:34;;;;;;;11.47;3.50;;;;;;;-145.18;100.00;46666.25;5015138;28;20083;-71
2023/08/01 07:47:59;;;;;;;14.00;3.23;;;;;;;-145.18;100.00;46666.25;5033919;28;20029;-71
2023/08/01 07:50:26;;;;;;;7.57;2.60;;;;;;;-145.18;100.00;46664.31;5032710;28;20126;-71
2023/08/01 07:52:51;;;;;;;7.73;2.80;;;;;;;-145.18;100.00;46668.22;5028072;28;20033;-71
2023/08/01 07:55:18;;;;;;;9.27;2.57;;;;;;;-145.18;100.00;46674.06;5031814;28;20036;-71
2023/08/01 07:57:49;;;;;;;12.97;3.27;;;;;;;-145.18;100.00;46670.16;5033152;28;20056;-71
2023/08/01 08:00:15;;;;;;;12.93;3.07;;;;;;;-145.18;100.00;46668.22;5032286;28;20466;-71
2023/08/01 08:02:45;;;;;;;14.43;2.73;;;;;;;-145.18;100.00;46674.06;5029598;28;20121;-71
2023/08/01 08:05:11;;;;;;;11.20;2.57;;;;;;;-145.18;100.00;46674.06;5026514;28;20029;-67
2023/08/01 08:07:37;;;;;;;9.57;2.50;;;;;;;-145.18;100.00;46679.94;5018929;28;20490;-67
2023/08/01 08:10:04;;;;;;;7.57;2.20;;;;;;;-145.18;100.00;46681.88;5014946;28;20084;-68
2023/08/01 08:12:29;;;;;;;6.70;2.70;;;;;;;-145.18;100.00;46679.94;5011126;28;20630;-67
2023/08/01 08:14:54;;;;;;;8.53;2.30;;;;;;;-145.18;100.00;46685.78;5009400;28;20041;-67
2023/08/01 08:17:20;;;;;;;6.00;2.20;;;;;;;-145.18;100.00;46685.78;5016553;28;20128;-67
2023/08/01 08:19:46;;;;;;;5.73;2.10;;;;;;;-145.18;100.00;46679.94;5019211;28;20025;-67
2023/08/01 08:22:11;;;;;;;5.63;2.30;;;;;;;-145.18;100.00;46681.88;5019485;28;20037;-67
2023/08/01 08:24:36;;;;;;;5.17;1.77;;;;;;;-145.18;100.00;46687.75;5010805;28;20038;-67
2023/08/01 08:27:02;;;;;;;6.03;1.77;;;;;;;-145.18;100.00;46685.78;5002331;28;20037;-67
2023/08/01 08:29:28;;;;;;;9.03;2.10;;;;;;;-145.18;100.00;46687.75;5004553;28;20025;-67
2023/08/01 08:31:54;;;;;;;4.20;2.00;;;;;;;-145.18;100.00;46689.69;5015865;28;20034;-67
2023/08/01 08:34:19;;;;;;;6.00;2.53;;;;;;;-145.18;100.00;46691.66;5013217;28;20037;-67
2023/08/01 08:36:46;;;;;;;5.87;2.20;;;;;;;-145.18;100.00;46697.50;5012982;28;20033;-67
2023/08/01 08:39:12;;;;;;;5.87;2.63;;;;;;;-145.18;100.00;46693.59;5011647;28;20049;-67
2023/08/01 08:41:47;;;;;;;5.10;1.80;;;;;;;-145.18;100.00;46697.50;4999314;28;20025;-67
2023/08/01 08:44:15;;;;;;;6.88;2.08;;;;;;;-145.18;100.00;46697.50;5007167;28;20052;-67
2023/08/01 08:46:43;;;;;;;5.83;1.93;;;;;;;-145.18;100.00;46697.50;5012196;28;20038;-67
2023/08/01 08:49:09;;;;;;;6.67;1.90;;;;;;;-145.18;100.00;46699.47;5012016;28;20030;-67
2023/08/01 08:51:36;;;;;;;5.43;1.70;;;;;;;-145.18;100.00;46697.50;5009249;28;20540;-67
2023/08/01 08:54:03;;;;;;;6.53;2.00;;;;;;;-145.18;100.00;46699.47;5008317;28;20143;-67
2023/08/01 08:56:29;;;;;;;6.40;2.40;;;;;;;-145.18;100.00;46699.47;5011078;28;20029;-67
2023/08/01 08:58:55;;;;;;;10.10;2.87;;;;;;;-145.18;100.00;46695.56;5012111;28;20026;-67
2023/08/01 09:01:20;;;;;;;8.90;2.00;;;;;;;-145.18;100.00;46699.47;5011962;28;20026;-68
2023/08/01 09:03:46;;;;;;;10.90;3.57;;;;;;;-145.18;100.00;46695.56;4994667;28;20112;-67
2023/08/01 09:06:17;;;;;;;3.97;1.57;;;;;;;-145.18;100.00;46695.56;4991911;28;20037;-67
2023/08/01 09:08:58;;;;;;;11.53;2.17;;;;;;;-145.18;100.00;46699.47;5020029;28;20061;-67
2023/08/01 09:11:24;;;;;;;10.37;2.43;;;;;;;-145.18;100.00;46693.59;5016045;28;20109;-67
2023/08/01 09:13:50;;;;;;;5.80;1.93;;;;;;;-145.18;100.00;46691.66;5012225;28;20032;-70
2023/08/01 09:16:16;;;;;;;7.93;2.20;;;;;;;-145.18;100.00;46693.59;5011897;28;20034;-70
2023/08/01 09:18:51;;;;;;;11.33;2.13;;;;;;;-145.18;100.00;46695.56;5014141;28;20095;-70
2023/08/01 09:21:21;;;;;;;12.10;2.30;;;;;;;-145.18;100.00;46691.66;5011481;28;20045;-69
2023/08/01 09:23:46;;;;;;;8.70;2.60;;;;;;;-145.18;100.00;46691.66;5012862;28;20029;-69
2023/08/01 09:26:16;;;;;;;5.63;2.03;;;;;;;-145.18;100.00;46693.59;5020445;28;20026;-69
2023/08/01 09:28:41;;;;;;;7.83;2.00;;;;;;;-145.18;100.00;46701.41;5012930;28;20572;-69
2023/08/01 09:31:07;;;;;;;10.17;3.07;;;;;;;-145.18;100.00;46699.47;5013083;28;20104;-69
2023/08/01 09:33:40;;;;;;;15.93;2.90;;;;;;;-145.18;100.00;46695.56;5013667;28;20029;-69
2023/08/01 09:36:07;;;;;;;7.17;2.13;;;;;;;-145.18;100.00;46699.47;5016873;28;20135;-69
2023/08/01 09:38:37;;;;;;;6.73;2.00;;;;;;;-145.18;100.00;46701.41;5031057;28;20393;-70
2023/08/01 09:41:05;;;;;;;5.33;1.87;;;;;;;-145.18;100.00;46697.50;5018548;28;20029;-69
2023/08/01 09:43:35;;;;;;;9.80;2.43;;;;;;;-145.18;100.00;46695.56;5023387;28;20658;-69
2023/08/01 09:46:01;;;;;;;14.73;2.23;;;;;;;-145.18;100.00;46697.50;5022611;28;20029;-69
2023/08/01 09:48:28;;;;;;;10.77;2.50;;;;;;;-145.18;100.00;46701.41;5023415;28;20033;-69
2023/08/01 09:51:07;;;;;;;6.27;2.13;;;;;;;-145.18;100.00;46695.56;5015483;28;20030;-69
2023/08/01 09:53:33;;;;;;;6.23;2.13;;;;;;;-145.18;100.00;46695.56;5017642;28;20037;-69
2023/08/01 09:56:01;;;;;;;9.40;2.87;;;;;;;-145.18;100.00;46672.13;5023383;28;20124;-69
2023/08/01 09:58:34;;;;;;;6.03;1.90;;;;;;;-145.18;100.00;46660.41;5027051;28;20034;-70
2023/08/01 10:01:01;;;;;;;8.57;2.30;;;;;;;-145.18;100.00;46677.97;5017750;28;20528;-69
2023/08/01 10:03:29;;;;;;;9.90;2.30;;;;;;;-145.18;100.00;46695.56;5012681;28;20041;-69
2023/08/01 10:05:56;;;;;;;10.10;3.30;;;;;;;-145.18;100.00;46695.56;5008566;28;20104;-70
2023/08/01 10:08:22;;;;;;;7.43;1.87;;;;;;;-145.18;100.00;46668.22;5016807;28;20502;-69
2023/08/01 10:10:48;;;;;;;4.03;1.60;;;;;;;-145.18;100.00;46635.00;5011580;28;20040;-69
2023/08/01 10:13:14;;;;;;;11.63;2.40;;;;;;;-145.18;100.00;46635.00;5017793;28;20018;-69
2023/08/01 10:15:41;;;;;;;7.77;1.90;;;;;;;-145.18;100.00;46593.97;5018571;28;20049;-69
2023/08/01 10:18:08;;;;;;;5.73;2.00;;;;;;;-145.18;100.00;46578.34;5017671;28;20133;-69
2023/08/01 10:20:36;;;;;;;11.43;3.17;;;;;;;-145.18;100.00;46586.16;5013187;28;20044;-69
2023/08/01 10:23:02;;;;;;;9.00;1.90;;;;;;;-145.18;100.00;46576.41;5030757;28;20087;-70
2023/08/01 10:25:30;;;;;;;7.03;2.03;;;;;;;-145.18;100.00;46588.13;5023911;28;20342;-69
2023/08/01 10:28:02;;;;;;;4.50;1.87;;;;;;;-145.18;100.00;46588.13;5024556;28;20392;-69
2023/08/01 10:30:29;;;;;;;7.23;1.80;;;;;;;-145.18;100.00;46586.16;5019560;28;20076;-69
2023/08/01 10:32:57;;;;;;;9.67;3.13;;;;;;;-145.18;100.00;46578.34;5023821;28;20045;-69
2023/08/01 10:35:36;;;;;;;11.40;3.00;;;;;;;-145.18;100.00;46617.41;5016265;28;20117;-69
2023/08/01 10:38:09;;;;;;;8.70;2.10;;;;;;;-145.18;100.00;46666.25;5017228;28;20037;-69
2023/08/01 10:40:42;;;;;;;7.90;2.63;;;;;;;-145.18;100.00;46687.75;4995759;28;20056;-69
2023/08/01 10:43:24;;;;;;;7.60;2.27;;;;;;;-145.18;100.00;46592.03;5017816;28;20053;-70
2023/08/01 10:46:03;;;;;;;6.50;2.20;;;;;;;-145.18;100.00;46578.34;5014061;28;20392;-70
2023/08/01 10:48:28;;;;;;;7.80;1.90;;;;;;;-145.18;100.00;46582.25;5017603;28;20025;-70
2023/08/01 10:50:57;;;;;;;4.80;2.20;;;;;;;-145.18;100.00;46582.25;5020070;28;20238;-70
2023/08/01 10:53:22;;;;;;;8.83;2.00;;;;;;;-145.18;100.00;46570.53;5018283;28;20032;-70
2023/08/01 10:55:48;;;;;;;5.17;1.50;;;;;;;-145.18;100.00;46590.06;5017496;28;20489;-70
2023/08/01 11:00:44;;;;;;;7.83;1.60;;;;;;;-145.18;100.00;46603.75;5025640;28;20045;-67
2023/08/01 11:03:09;;;;;;;5.23;1.73;;;;;;;-145.18;100.00;46584.22;5033927;28;20567;-67
2023/08/01 11:05:35;;;;;;;9.13;2.07;;;;;;;-145.18;100.00;46595.94;5034435;28;20025;-68